createdAt,value
2019-02-18T00:01:27.058Z,7
2019-02-18T00:11:27.958Z,7
2019-02-18T00:21:28.176Z,8
2019-02-18T00:31:28.011Z,7
2019-02-18T00:41:29.286Z,7
2019-02-18T00:51:27.908Z,7
2019-02-18T01:01:28.413Z,7
2019-02-18T01:11:27.300Z,7
2019-02-18T01:21:27.916Z,7
2019-02-18T01:31:27.491Z,7
2019-02-18T01:41:27.186Z,7
2019-02-18T01:51:28.348Z,7
2019-02-18T02:01:27.514Z,7
2019-02-18T02:11:27.376Z,7
2019-02-18T02:21:28.879Z,7
2019-02-18T02:31:34.071Z,6
2019-02-18T02:41:27.821Z,7
2019-02-18T02:51:27.975Z,6
2019-02-18T03:01:28.244Z,6
2019-02-18T03:11:28.185Z,6
2019-02-18T03:21:27.761Z,6
2019-02-18T03:31:27.352Z,6
2019-02-18T03:41:27.611Z,6
2019-02-18T03:51:30.321Z,6
2019-02-18T04:01:26.891Z,6
2019-02-18T04:11:27.446Z,6
2019-02-18T04:21:27.832Z,6
2019-02-18T04:31:28.028Z,6
2019-02-18T04:41:27.961Z,6
2019-02-18T04:51:28.258Z,6
2019-02-18T05:01:26.998Z,6
2019-02-18T05:11:27.639Z,6
2019-02-18T05:21:28.699Z,6
2019-02-18T05:31:27.058Z,6
2019-02-18T05:41:31.072Z,6
2019-02-18T05:51:32.348Z,5
2019-02-18T06:01:26.993Z,5
2019-02-18T06:11:28.349Z,5
2019-02-18T06:21:27.944Z,5
2019-02-18T06:31:28.016Z,6
2019-02-18T06:41:27.786Z,5
2019-02-18T06:51:29.123Z,6
2019-02-18T07:01:28.090Z,6
2019-02-18T07:11:34.685Z,6
2019-02-18T07:21:27.677Z,6
2019-02-18T07:31:28.970Z,6
2019-02-18T07:41:27.942Z,6
2019-02-18T07:51:27.826Z,6
2019-02-18T08:01:27.580Z,6
2019-02-18T08:11:28.030Z,7
2019-02-18T08:21:29.855Z,7
2019-02-18T08:31:28.738Z,8
2019-02-18T08:41:28.196Z,8
2019-02-18T08:51:28.074Z,8
2019-02-18T09:01:27.742Z,8
2019-02-18T09:11:28.083Z,9
2019-02-18T09:21:28.054Z,9
2019-02-18T09:31:30.581Z,9
2019-02-18T09:41:28.266Z,9
2019-02-18T09:51:28.193Z,9
2019-02-18T10:01:29.054Z,10
2019-02-18T10:11:28.698Z,10
2019-02-18T10:21:27.492Z,10
2019-02-18T10:31:28.323Z,11
2019-02-18T10:41:27.193Z,11
2019-02-18T10:51:28.697Z,11
2019-02-18T11:01:28.522Z,11
2019-02-18T11:11:33.266Z,12
2019-02-18T11:21:32.724Z,12
2019-02-18T11:31:33.079Z,12
2019-02-18T11:41:34.154Z,12
2019-02-18T11:51:28.981Z,13
2019-02-18T12:01:29.670Z,12
2019-02-18T12:11:38.528Z,13
2019-02-18T12:21:29.009Z,14
2019-02-18T12:31:28.470Z,14
2019-02-18T12:41:27.406Z,14
2019-02-18T12:51:28.276Z,14
2019-02-18T13:01:29.213Z,14
2019-02-18T13:11:28.624Z,15
2019-02-18T13:21:28.284Z,14
2019-02-18T13:31:27.327Z,15
2019-02-18T13:41:27.574Z,14
2019-02-18T13:51:27.869Z,15
2019-02-18T14:01:33.033Z,15
2019-02-18T14:11:27.761Z,15
2019-02-18T14:21:33.524Z,16
2019-02-18T14:31:33.434Z,15
2019-02-18T14:41:32.666Z,15
2019-02-18T14:51:33.970Z,15
2019-02-18T15:01:28.363Z,15
2019-02-18T15:11:28.757Z,15
2019-02-18T15:21:28.607Z,15
2019-02-18T15:31:27.742Z,15
2019-02-18T15:41:27.916Z,15
2019-02-18T15:51:28.081Z,15
2019-02-18T16:01:29.343Z,15
2019-02-18T16:11:28.489Z,14
2019-02-18T16:21:27.890Z,14
2019-02-18T16:31:31.385Z,14
2019-02-18T16:41:29.007Z,14
2019-02-18T16:51:27.798Z,14
2019-02-18T17:01:28.622Z,13
2019-02-18T17:11:28.687Z,13
2019-02-18T17:21:28.044Z,12
2019-02-18T17:31:27.790Z,13
2019-02-18T17:41:28.969Z,12
2019-02-18T17:51:28.130Z,12
2019-02-18T18:01:28.064Z,12
2019-02-18T18:11:28.264Z,12
2019-02-18T18:21:27.248Z,12
2019-02-18T18:31:30.258Z,12
2019-02-18T18:41:28.762Z,12
2019-02-18T18:51:28.808Z,11
2019-02-18T19:01:28.997Z,12
2019-02-18T19:11:27.814Z,11
2019-02-18T19:21:27.852Z,11
2019-02-18T19:31:30.362Z,11
2019-02-18T21:21:29.032Z,9
2019-02-18T21:31:33.582Z,8
2019-02-18T21:41:34.354Z,8
2019-02-18T21:51:33.639Z,8
2019-02-18T22:01:27.133Z,8
2019-02-18T22:11:31.030Z,8
2019-02-18T22:21:28.524Z,8
2019-02-18T22:31:27.305Z,7
2019-02-18T22:41:26.922Z,8
2019-02-18T22:51:27.533Z,7
2019-02-18T23:01:30.574Z,8
2019-02-18T23:11:30.978Z,7
2019-02-18T23:21:28.318Z,7
2019-02-18T23:31:27.013Z,7
2019-02-18T23:41:28.250Z,7
2019-02-18T23:51:28.969Z,7
